sensor_id;sensor_type;location;lat;lon;timestamp;P1;durP1;ratioP1;P2;durP2;ratioP2
45049;SDS011;61798;48.048;-1.928;2022-12-13T00:00:22;41.10;;;20.10;;
45049;SDS011;61798;48.048;-1.928;2022-12-13T00:02:30;44.35;;;23.05;;
45049;SDS011;61798;48.048;-1.928;2022-12-13T00:04:37;43.40;;;21.63;;
45049;SDS011;61798;48.048;-1.928;2022-12-13T00:06:45;44.08;;;22.58;;
45049;SDS011;61798;48.048;-1.928;2022-12-13T00:08:54;44.83;;;22.38;;
45049;SDS011;61798;48.048;-1.928;2022-12-13T00:11:05;42.42;;;21.55;;
45049;SDS011;61798;48.048;-1.928;2022-12-13T00:13:16;44.25;;;23.30;;
45049;SDS011;61798;48.048;-1.928;2022-12-13T00:15:25;44.80;;;23.33;;
45049;SDS011;61798;48.048;-1.928;2022-12-13T00:17:31;45.17;;;22.13;;
45049;SDS011;61798;48.048;-1.928;2022-12-13T00:19:39;42.67;;;22.42;;
45049;SDS011;61798;48.048;-1.928;2022-12-13T00:21:49;45.10;;;22.95;;
45049;SDS011;61798;48.048;-1.928;2022-12-13T00:23:57;45.90;;;22.42;;
45049;SDS011;61798;48.048;-1.928;2022-12-13T00:26:08;45.72;;;22.67;;
45049;SDS011;61798;48.048;-1.928;2022-12-13T00:28:19;43.20;;;22.07;;
45049;SDS011;61798;48.048;-1.928;2022-12-13T00:30:26;43.78;;;22.98;;
45049;SDS011;61798;48.048;-1.928;2022-12-13T00:32:38;44.97;;;23.73;;
45049;SDS011;61798;48.048;-1.928;2022-12-13T00:34:46;44.70;;;22.60;;
45049;SDS011;61798;48.048;-1.928;2022-12-13T00:36:54;42.67;;;21.58;;
45049;SDS011;61798;48.048;-1.928;2022-12-13T00:39:05;39.10;;;19.75;;
45049;SDS011;61798;48.048;-1.928;2022-12-13T00:41:15;42.10;;;22.38;;
45049;SDS011;61798;48.048;-1.928;2022-12-13T00:43:23;44.33;;;21.90;;
45049;SDS011;61798;48.048;-1.928;2022-12-13T00:45:31;44.80;;;22.30;;
45049;SDS011;61798;48.048;-1.928;2022-12-13T00:47:40;41.22;;;20.95;;
45049;SDS011;61798;48.048;-1.928;2022-12-13T00:49:54;45.55;;;21.88;;
45049;SDS011;61798;48.048;-1.928;2022-12-13T00:52:02;45.53;;;21.67;;
45049;SDS011;61798;48.048;-1.928;2022-12-13T00:54:09;41.22;;;22.20;;
45049;SDS011;61798;48.048;-1.928;2022-12-13T00:56:19;39.67;;;20.88;;
45049;SDS011;61798;48.048;-1.928;2022-12-13T00:58:36;42.75;;;21.05;;
45049;SDS011;61798;48.048;-1.928;2022-12-13T01:00:45;43.97;;;22.25;;
45049;SDS011;61798;48.048;-1.928;2022-12-13T01:02:55;37.47;;;20.30;;
45049;SDS011;61798;48.048;-1.928;2022-12-13T01:05:05;40.63;;;19.70;;
45049;SDS011;61798;48.048;-1.928;2022-12-13T01:07:15;41.75;;;20.70;;
45049;SDS011;61798;48.048;-1.928;2022-12-13T01:09:25;40.40;;;20.42;;
45049;SDS011;61798;48.048;-1.928;2022-12-13T01:11:42;40.47;;;20.80;;
45049;SDS011;61798;48.048;-1.928;2022-12-13T01:13:52;43.65;;;20.73;;
45049;SDS011;61798;48.048;-1.928;2022-12-13T01:16:06;45.10;;;21.75;;
45049;SDS011;61798;48.048;-1.928;2022-12-13T01:18:21;43.88;;;21.75;;
45049;SDS011;61798;48.048;-1.928;2022-12-13T01:20:32;41.42;;;21.05;;
45049;SDS011;61798;48.048;-1.928;2022-12-13T01:22:41;40.65;;;21.98;;
45049;SDS011;61798;48.048;-1.928;2022-12-13T01:24:57;43.90;;;22.65;;
45049;SDS011;61798;48.048;-1.928;2022-12-13T01:27:09;46.05;;;22.77;;
45049;SDS011;61798;48.048;-1.928;2022-12-13T01:29:19;44.17;;;23.05;;
45049;SDS011;61798;48.048;-1.928;2022-12-13T01:31:30;47.33;;;22.77;;
45049;SDS011;61798;48.048;-1.928;2022-12-13T01:33:39;48.40;;;24.00;;
45049;SDS011;61798;48.048;-1.928;2022-12-13T01:35:47;44.38;;;22.48;;
45049;SDS011;61798;48.048;-1.928;2022-12-13T01:37:55;43.08;;;21.88;;
45049;SDS011;61798;48.048;-1.928;2022-12-13T01:40:06;45.03;;;22.85;;
45049;SDS011;61798;48.048;-1.928;2022-12-13T01:42:32;40.75;;;20.73;;
45049;SDS011;61798;48.048;-1.928;2022-12-13T01:47:17;45.78;;;21.67;;
45049;SDS011;61798;48.048;-1.928;2022-12-13T01:49:32;40.78;;;21.33;;
45049;SDS011;61798;48.048;-1.928;2022-12-13T01:51:43;45.78;;;22.55;;
45049;SDS011;61798;48.048;-1.928;2022-12-13T01:54:00;51.05;;;23.42;;
45049;SDS011;61798;48.048;-1.928;2022-12-13T01:56:12;48.50;;;24.52;;
45049;SDS011;61798;48.048;-1.928;2022-12-13T01:58:26;49.10;;;23.40;;
45049;SDS011;61798;48.048;-1.928;2022-12-13T02:00:35;46.63;;;23.17;;
45049;SDS011;61798;48.048;-1.928;2022-12-13T02:02:44;50.42;;;24.75;;
45049;SDS011;61798;48.048;-1.928;2022-12-13T02:05:58;50.95;;;24.80;;
45049;SDS011;61798;48.048;-1.928;2022-12-13T02:08:07;49.70;;;23.73;;
45049;SDS011;61798;48.048;-1.928;2022-12-13T02:10:17;49.72;;;24.23;;
45049;SDS011;61798;48.048;-1.928;2022-12-13T02:12:28;47.45;;;23.73;;
45049;SDS011;61798;48.048;-1.928;2022-12-13T02:14:38;51.15;;;23.92;;
45049;SDS011;61798;48.048;-1.928;2022-12-13T02:30:20;52.80;;;24.63;;
45049;SDS011;61798;48.048;-1.928;2022-12-13T02:32:37;50.05;;;23.83;;
45049;SDS011;61798;48.048;-1.928;2022-12-13T02:35:16;47.33;;;24.13;;
45049;SDS011;61798;48.048;-1.928;2022-12-13T02:37:50;50.10;;;24.58;;
45049;SDS011;61798;48.048;-1.928;2022-12-13T02:40:29;54.95;;;24.85;;
45049;SDS011;61798;48.048;-1.928;2022-12-13T02:42:48;53.65;;;25.75;;
45049;SDS011;61798;48.048;-1.928;2022-12-13T02:45:20;54.00;;;25.40;;
45049;SDS011;61798;48.048;-1.928;2022-12-13T02:47:37;54.13;;;24.20;;
45049;SDS011;61798;48.048;-1.928;2022-12-13T02:49:49;50.00;;;24.88;;
45049;SDS011;61798;48.048;-1.928;2022-12-13T02:52:01;55.85;;;25.95;;
45049;SDS011;61798;48.048;-1.928;2022-12-13T02:54:10;54.80;;;26.02;;
45049;SDS011;61798;48.048;-1.928;2022-12-13T02:56:17;52.88;;;25.98;;
45049;SDS011;61798;48.048;-1.928;2022-12-13T02:58:26;51.42;;;24.83;;
45049;SDS011;61798;48.048;-1.928;2022-12-13T03:00:58;53.85;;;25.58;;
45049;SDS011;61798;48.048;-1.928;2022-12-13T03:03:38;57.13;;;26.08;;
45049;SDS011;61798;48.048;-1.928;2022-12-13T03:06:17;53.60;;;25.17;;
45049;SDS011;61798;48.048;-1.928;2022-12-13T03:17:23;56.85;;;26.75;;
45049;SDS011;61798;48.048;-1.928;2022-12-13T03:19:38;57.33;;;26.70;;
45049;SDS011;61798;48.048;-1.928;2022-12-13T03:21:49;60.03;;;27.80;;
45049;SDS011;61798;48.048;-1.928;2022-12-13T03:23:58;56.53;;;27.17;;
45049;SDS011;61798;48.048;-1.928;2022-12-13T03:26:10;60.08;;;28.10;;
45049;SDS011;61798;48.048;-1.928;2022-12-13T03:28:20;61.25;;;27.90;;
45049;SDS011;61798;48.048;-1.928;2022-12-13T03:30:34;54.22;;;27.13;;
45049;SDS011;61798;48.048;-1.928;2022-12-13T03:32:51;59.78;;;26.88;;
45049;SDS011;61798;48.048;-1.928;2022-12-13T03:34:59;55.90;;;27.27;;
45049;SDS011;61798;48.048;-1.928;2022-12-13T03:37:12;57.33;;;27.58;;
45049;SDS011;61798;48.048;-1.928;2022-12-13T03:39:22;56.60;;;26.55;;
45049;SDS011;61798;48.048;-1.928;2022-12-13T03:41:33;60.83;;;29.35;;
45049;SDS011;61798;48.048;-1.928;2022-12-13T03:43:53;58.70;;;27.65;;
45049;SDS011;61798;48.048;-1.928;2022-12-13T03:46:02;65.55;;;29.65;;
45049;SDS011;61798;48.048;-1.928;2022-12-13T03:48:22;61.28;;;28.58;;
45049;SDS011;61798;48.048;-1.928;2022-12-13T03:50:33;59.55;;;28.65;;
45049;SDS011;61798;48.048;-1.928;2022-12-13T03:52:42;52.50;;;26.80;;
45049;SDS011;61798;48.048;-1.928;2022-12-13T03:54:56;56.63;;;26.45;;
45049;SDS011;61798;48.048;-1.928;2022-12-13T03:57:15;57.10;;;27.15;;
45049;SDS011;61798;48.048;-1.928;2022-12-13T03:59:30;52.97;;;26.23;;
45049;SDS011;61798;48.048;-1.928;2022-12-13T04:01:39;56.50;;;27.60;;
45049;SDS011;61798;48.048;-1.928;2022-12-13T04:03:50;58.92;;;28.67;;
45049;SDS011;61798;48.048;-1.928;2022-12-13T04:06:08;60.03;;;29.17;;
45049;SDS011;61798;48.048;-1.928;2022-12-13T04:08:21;54.28;;;27.33;;
45049;SDS011;61798;48.048;-1.928;2022-12-13T04:10:30;57.83;;;28.48;;
45049;SDS011;61798;48.048;-1.928;2022-12-13T04:12:39;52.25;;;26.92;;
45049;SDS011;61798;48.048;-1.928;2022-12-13T04:15:10;53.97;;;26.98;;
45049;SDS011;61798;48.048;-1.928;2022-12-13T04:17:18;56.22;;;27.40;;
45049;SDS011;61798;48.048;-1.928;2022-12-13T04:19:33;61.95;;;28.83;;
45049;SDS011;61798;48.048;-1.928;2022-12-13T04:21:48;56.38;;;27.83;;
45049;SDS011;61798;48.048;-1.928;2022-12-13T04:24:16;58.65;;;28.38;;
45049;SDS011;61798;48.048;-1.928;2022-12-13T04:26:33;54.03;;;27.05;;
45049;SDS011;61798;48.048;-1.928;2022-12-13T04:28:52;56.25;;;27.38;;
45049;SDS011;61798;48.048;-1.928;2022-12-13T04:31:05;61.08;;;28.38;;
45049;SDS011;61798;48.048;-1.928;2022-12-13T04:33:27;50.85;;;25.75;;
45049;SDS011;61798;48.048;-1.928;2022-12-13T04:35:36;54.35;;;27.35;;
45049;SDS011;61798;48.048;-1.928;2022-12-13T04:37:46;52.30;;;27.10;;
45049;SDS011;61798;48.048;-1.928;2022-12-13T04:40:02;55.88;;;27.50;;
45049;SDS011;61798;48.048;-1.928;2022-12-13T04:42:21;55.35;;;27.23;;
45049;SDS011;61798;48.048;-1.928;2022-12-13T04:44:30;56.80;;;27.98;;
45049;SDS011;61798;48.048;-1.928;2022-12-13T04:46:47;58.03;;;28.88;;
45049;SDS011;61798;48.048;-1.928;2022-12-13T04:49:30;57.10;;;28.37;;
45049;SDS011;61798;48.048;-1.928;2022-12-13T04:52:02;53.75;;;26.30;;
45049;SDS011;61798;48.048;-1.928;2022-12-13T04:54:39;54.25;;;26.10;;
45049;SDS011;61798;48.048;-1.928;2022-12-13T04:57:15;51.65;;;26.42;;
45049;SDS011;61798;48.048;-1.928;2022-12-13T04:59:47;53.33;;;27.35;;
45049;SDS011;61798;48.048;-1.928;2022-12-13T05:02:04;51.97;;;25.80;;
45049;SDS011;61798;48.048;-1.928;2022-12-13T05:04:18;53.55;;;27.17;;
45049;SDS011;61798;48.048;-1.928;2022-12-13T05:06:30;53.47;;;27.10;;
45049;SDS011;61798;48.048;-1.928;2022-12-13T05:08:55;49.53;;;26.48;;
45049;SDS011;61798;48.048;-1.928;2022-12-13T05:11:18;53.22;;;27.58;;
45049;SDS011;61798;48.048;-1.928;2022-12-13T05:13:26;53.53;;;27.98;;
45049;SDS011;61798;48.048;-1.928;2022-12-13T05:15:36;55.38;;;27.83;;
45049;SDS011;61798;48.048;-1.928;2022-12-13T05:17:47;52.65;;;28.42;;
45049;SDS011;61798;48.048;-1.928;2022-12-13T05:19:58;55.67;;;29.25;;
45049;SDS011;61798;48.048;-1.928;2022-12-13T05:22:07;55.25;;;28.70;;
45049;SDS011;61798;48.048;-1.928;2022-12-13T05:24:22;56.55;;;29.52;;
45049;SDS011;61798;48.048;-1.928;2022-12-13T05:26:32;69.38;;;34.40;;
45049;SDS011;61798;48.048;-1.928;2022-12-13T05:28:49;59.85;;;31.50;;
45049;SDS011;61798;48.048;-1.928;2022-12-13T05:31:10;55.33;;;28.70;;
45049;SDS011;61798;48.048;-1.928;2022-12-13T05:33:27;55.33;;;29.23;;
45049;SDS011;61798;48.048;-1.928;2022-12-13T05:35:42;53.58;;;27.02;;
45049;SDS011;61798;48.048;-1.928;2022-12-13T05:37:52;56.85;;;28.55;;
45049;SDS011;61798;48.048;-1.928;2022-12-13T05:40:03;51.92;;;27.35;;
45049;SDS011;61798;48.048;-1.928;2022-12-13T05:42:17;55.08;;;26.55;;
45049;SDS011;61798;48.048;-1.928;2022-12-13T05:44:34;51.97;;;26.90;;
45049;SDS011;61798;48.048;-1.928;2022-12-13T05:46:49;50.00;;;26.75;;
45049;SDS011;61798;48.048;-1.928;2022-12-13T05:48:59;49.70;;;25.85;;
45049;SDS011;61798;48.048;-1.928;2022-12-13T05:51:27;53.78;;;27.83;;
45049;SDS011;61798;48.048;-1.928;2022-12-13T05:53:36;54.78;;;27.60;;
45049;SDS011;61798;48.048;-1.928;2022-12-13T05:55:53;52.00;;;27.92;;
45049;SDS011;61798;48.048;-1.928;2022-12-13T05:58:09;54.95;;;27.00;;
45049;SDS011;61798;48.048;-1.928;2022-12-13T06:00:28;56.88;;;27.98;;
45049;SDS011;61798;48.048;-1.928;2022-12-13T06:02:44;59.10;;;28.75;;
45049;SDS011;61798;48.048;-1.928;2022-12-13T06:05:07;57.65;;;29.35;;
45049;SDS011;61798;48.048;-1.928;2022-12-13T06:07:22;58.97;;;27.05;;
45049;SDS011;61798;48.048;-1.928;2022-12-13T06:09:53;65.30;;;31.48;;
45049;SDS011;61798;48.048;-1.928;2022-12-13T06:12:48;73.32;;;34.03;;
45049;SDS011;61798;48.048;-1.928;2022-12-13T06:15:22;76.95;;;35.50;;
45049;SDS011;61798;48.048;-1.928;2022-12-13T06:17:54;62.28;;;29.45;;
45049;SDS011;61798;48.048;-1.928;2022-12-13T06:20:28;64.68;;;31.65;;
45049;SDS011;61798;48.048;-1.928;2022-12-13T06:22:46;76.85;;;34.00;;
45049;SDS011;61798;48.048;-1.928;2022-12-13T06:25:02;74.85;;;36.05;;
45049;SDS011;61798;48.048;-1.928;2022-12-13T06:27:33;67.90;;;35.22;;
45049;SDS011;61798;48.048;-1.928;2022-12-13T06:29:59;78.22;;;34.78;;
45049;SDS011;61798;48.048;-1.928;2022-12-13T06:32:20;79.22;;;35.85;;
45049;SDS011;61798;48.048;-1.928;2022-12-13T06:34:42;70.18;;;34.80;;
45049;SDS011;61798;48.048;-1.928;2022-12-13T06:37:03;72.45;;;33.92;;
45049;SDS011;61798;48.048;-1.928;2022-12-13T06:39:13;66.57;;;32.75;;
45049;SDS011;61798;48.048;-1.928;2022-12-13T06:41:32;61.35;;;30.55;;
45049;SDS011;61798;48.048;-1.928;2022-12-13T06:44:02;56.25;;;28.80;;
45049;SDS011;61798;48.048;-1.928;2022-12-13T06:46:54;61.42;;;29.85;;
45049;SDS011;61798;48.048;-1.928;2022-12-13T06:49:46;62.97;;;36.00;;
45049;SDS011;61798;48.048;-1.928;2022-12-13T06:54:33;56.92;;;28.73;;
45049;SDS011;61798;48.048;-1.928;2022-12-13T06:56:52;69.32;;;34.72;;
45049;SDS011;61798;48.048;-1.928;2022-12-13T06:59:10;57.92;;;30.15;;
45049;SDS011;61798;48.048;-1.928;2022-12-13T07:01:48;63.30;;;28.73;;
45049;SDS011;61798;48.048;-1.928;2022-12-13T07:04:13;55.88;;;29.45;;
45049;SDS011;61798;48.048;-1.928;2022-12-13T07:06:33;74.50;;;34.85;;
45049;SDS011;61798;48.048;-1.928;2022-12-13T07:09:03;80.28;;;39.00;;
45049;SDS011;61798;48.048;-1.928;2022-12-13T07:11:22;77.95;;;38.47;;
45049;SDS011;61798;48.048;-1.928;2022-12-13T07:13:52;78.47;;;36.88;;
45049;SDS011;61798;48.048;-1.928;2022-12-13T07:16:28;79.65;;;37.05;;
45049;SDS011;61798;48.048;-1.928;2022-12-13T07:18:56;62.67;;;32.20;;
45049;SDS011;61798;48.048;-1.928;2022-12-13T07:21:36;65.82;;;32.20;;
45049;SDS011;61798;48.048;-1.928;2022-12-13T07:24:21;62.90;;;31.58;;
45049;SDS011;61798;48.048;-1.928;2022-12-13T07:27:19;57.67;;;30.23;;
45049;SDS011;61798;48.048;-1.928;2022-12-13T07:30:14;60.25;;;28.38;;
45049;SDS011;61798;48.048;-1.928;2022-12-13T07:32:53;50.88;;;25.67;;
45049;SDS011;61798;48.048;-1.928;2022-12-13T07:35:21;55.92;;;28.70;;
45049;SDS011;61798;48.048;-1.928;2022-12-13T07:37:49;54.22;;;27.48;;
45049;SDS011;61798;48.048;-1.928;2022-12-13T07:40:14;58.58;;;28.77;;
45049;SDS011;61798;48.048;-1.928;2022-12-13T07:42:52;57.38;;;28.73;;
45049;SDS011;61798;48.048;-1.928;2022-12-13T07:45:50;57.38;;;28.75;;
45049;SDS011;61798;48.048;-1.928;2022-12-13T07:48:18;59.58;;;28.52;;
45049;SDS011;61798;48.048;-1.928;2022-12-13T07:50:50;58.47;;;30.23;;
45049;SDS011;61798;48.048;-1.928;2022-12-13T07:53:19;59.78;;;31.35;;
45049;SDS011;61798;48.048;-1.928;2022-12-13T07:56:02;59.00;;;30.67;;
45049;SDS011;61798;48.048;-1.928;2022-12-13T07:58:50;56.47;;;29.92;;
45049;SDS011;61798;48.048;-1.928;2022-12-13T08:01:17;56.80;;;29.00;;
45049;SDS011;61798;48.048;-1.928;2022-12-13T08:03:53;56.30;;;29.10;;
45049;SDS011;61798;48.048;-1.928;2022-12-13T08:06:13;55.05;;;28.88;;
45049;SDS011;61798;48.048;-1.928;2022-12-13T08:08:54;56.53;;;29.63;;
45049;SDS011;61798;48.048;-1.928;2022-12-13T08:11:30;69.68;;;33.58;;
45049;SDS011;61798;48.048;-1.928;2022-12-13T08:14:23;100.53;;;41.88;;
45049;SDS011;61798;48.048;-1.928;2022-12-13T08:17:13;98.88;;;40.42;;
45049;SDS011;61798;48.048;-1.928;2022-12-13T08:20:23;98.53;;;40.97;;
45049;SDS011;61798;48.048;-1.928;2022-12-13T08:23:58;87.47;;;36.53;;
45049;SDS011;61798;48.048;-1.928;2022-12-13T08:26:59;76.40;;;36.05;;
45049;SDS011;61798;48.048;-1.928;2022-12-13T08:29:21;90.20;;;40.72;;
45049;SDS011;61798;48.048;-1.928;2022-12-13T08:32:11;79.30;;;36.40;;
45049;SDS011;61798;48.048;-1.928;2022-12-13T08:35:31;77.57;;;35.95;;
45049;SDS011;61798;48.048;-1.928;2022-12-13T08:38:14;73.20;;;33.70;;
45049;SDS011;61798;48.048;-1.928;2022-12-13T08:40:57;64.43;;;31.88;;
45049;SDS011;61798;48.048;-1.928;2022-12-13T08:43:26;63.00;;;31.73;;
45049;SDS011;61798;48.048;-1.928;2022-12-13T08:46:19;69.30;;;35.75;;
45049;SDS011;61798;48.048;-1.928;2022-12-13T08:51:38;54.35;;;29.08;;
45049;SDS011;61798;48.048;-1.928;2022-12-13T08:53:57;63.58;;;34.80;;
45049;SDS011;61798;48.048;-1.928;2022-12-13T08:56:38;56.30;;;31.67;;
45049;SDS011;61798;48.048;-1.928;2022-12-13T08:58:55;62.95;;;30.85;;
45049;SDS011;61798;48.048;-1.928;2022-12-13T09:01:44;57.45;;;29.63;;
45049;SDS011;61798;48.048;-1.928;2022-12-13T09:04:45;63.92;;;31.42;;
45049;SDS011;61798;48.048;-1.928;2022-12-13T09:07:03;60.30;;;29.58;;
45049;SDS011;61798;48.048;-1.928;2022-12-13T09:09:30;61.22;;;31.20;;
45049;SDS011;61798;48.048;-1.928;2022-12-13T09:12:07;59.40;;;30.45;;
45049;SDS011;61798;48.048;-1.928;2022-12-13T09:14:39;62.60;;;31.13;;
45049;SDS011;61798;48.048;-1.928;2022-12-13T09:17:23;56.75;;;30.00;;
45049;SDS011;61798;48.048;-1.928;2022-12-13T09:19:54;58.08;;;29.77;;
45049;SDS011;61798;48.048;-1.928;2022-12-13T09:26:00;56.47;;;29.42;;
45049;SDS011;61798;48.048;-1.928;2022-12-13T09:29:46;54.63;;;28.88;;
45049;SDS011;61798;48.048;-1.928;2022-12-13T09:32:47;53.30;;;28.73;;
45049;SDS011;61798;48.048;-1.928;2022-12-13T11:18:50;43.00;;;23.60;;
45049;SDS011;61798;48.048;-1.928;2022-12-13T11:22:22;46.00;;;24.35;;
45049;SDS011;61798;48.048;-1.928;2022-12-13T11:25:52;41.00;;;22.80;;
45049;SDS011;61798;48.048;-1.928;2022-12-13T11:35:31;40.17;;;22.05;;
45049;SDS011;61798;48.048;-1.928;2022-12-13T11:38:49;40.80;;;21.85;;
45049;SDS011;61798;48.048;-1.928;2022-12-13T11:42:34;40.85;;;22.35;;
45049;SDS011;61798;48.048;-1.928;2022-12-13T11:45:52;42.00;;;22.70;;
45049;SDS011;61798;48.048;-1.928;2022-12-13T11:48:46;39.25;;;22.40;;
45049;SDS011;61798;48.048;-1.928;2022-12-13T11:54:51;44.35;;;22.60;;
45049;SDS011;61798;48.048;-1.928;2022-12-13T12:10:41;42.65;;;22.98;;
45049;SDS011;61798;48.048;-1.928;2022-12-13T12:13:37;37.58;;;21.75;;
45049;SDS011;61798;48.048;-1.928;2022-12-13T12:16:40;43.63;;;21.08;;
45049;SDS011;61798;48.048;-1.928;2022-12-13T12:19:35;40.92;;;21.48;;
45049;SDS011;61798;48.048;-1.928;2022-12-13T12:37:45;39.10;;;21.70;;
45049;SDS011;61798;48.048;-1.928;2022-12-13T12:59:11;40.40;;;22.38;;
45049;SDS011;61798;48.048;-1.928;2022-12-13T13:22:35;36.72;;;21.40;;
45049;SDS011;61798;48.048;-1.928;2022-12-13T13:25:39;38.05;;;21.75;;
45049;SDS011;61798;48.048;-1.928;2022-12-13T13:35:54;43.58;;;21.88;;
45049;SDS011;61798;48.048;-1.928;2022-12-13T13:38:47;38.78;;;21.90;;
45049;SDS011;61798;48.048;-1.928;2022-12-13T13:40:59;43.05;;;22.15;;
45049;SDS011;61798;48.048;-1.928;2022-12-13T13:43:51;39.22;;;21.67;;
45049;SDS011;61798;48.048;-1.928;2022-12-13T13:46:11;38.13;;;21.80;;
45049;SDS011;61798;48.048;-1.928;2022-12-13T13:54:05;38.67;;;19.98;;
45049;SDS011;61798;48.048;-1.928;2022-12-13T14:31:38;36.80;;;18.83;;
45049;SDS011;61798;48.048;-1.928;2022-12-13T14:39:31;34.38;;;18.50;;
45049;SDS011;61798;48.048;-1.928;2022-12-13T14:43:04;33.75;;;18.77;;
45049;SDS011;61798;48.048;-1.928;2022-12-13T14:50:17;36.55;;;19.35;;
45049;SDS011;61798;48.048;-1.928;2022-12-13T14:52:46;36.90;;;18.60;;
45049;SDS011;61798;48.048;-1.928;2022-12-13T14:58:28;41.17;;;18.58;;
45049;SDS011;61798;48.048;-1.928;2022-12-13T15:01:34;36.30;;;17.75;;
45049;SDS011;61798;48.048;-1.928;2022-12-13T15:08:01;35.67;;;18.00;;
45049;SDS011;61798;48.048;-1.928;2022-12-13T15:10:55;38.70;;;20.02;;
45049;SDS011;61798;48.048;-1.928;2022-12-13T15:13:27;34.38;;;18.40;;
45049;SDS011;61798;48.048;-1.928;2022-12-13T15:33:03;36.00;;;18.40;;
45049;SDS011;61798;48.048;-1.928;2022-12-13T15:36:41;40.45;;;19.25;;
45049;SDS011;61798;48.048;-1.928;2022-12-13T16:10:45;40.92;;;19.70;;
45049;SDS011;61798;48.048;-1.928;2022-12-13T16:18:28;35.80;;;18.83;;
45049;SDS011;61798;48.048;-1.928;2022-12-13T16:26:42;36.45;;;19.25;;
45049;SDS011;61798;48.048;-1.928;2022-12-13T16:29:16;36.92;;;19.35;;
45049;SDS011;61798;48.048;-1.928;2022-12-13T16:33:33;40.05;;;20.45;;
45049;SDS011;61798;48.048;-1.928;2022-12-13T16:37:15;39.72;;;20.27;;
45049;SDS011;61798;48.048;-1.928;2022-12-13T17:11:48;43.40;;;20.85;;
45049;SDS011;61798;48.048;-1.928;2022-12-13T17:26:56;41.78;;;21.48;;
45049;SDS011;61798;48.048;-1.928;2022-12-13T17:33:06;46.75;;;22.83;;
45049;SDS011;61798;48.048;-1.928;2022-12-13T17:36:36;47.38;;;24.30;;
45049;SDS011;61798;48.048;-1.928;2022-12-13T17:39:26;51.05;;;24.08;;
45049;SDS011;61798;48.048;-1.928;2022-12-13T17:42:21;44.53;;;24.02;;
45049;SDS011;61798;48.048;-1.928;2022-12-13T17:45:02;48.97;;;27.70;;
45049;SDS011;61798;48.048;-1.928;2022-12-13T17:48:45;50.40;;;27.38;;
45049;SDS011;61798;48.048;-1.928;2022-12-13T17:52:49;47.20;;;25.80;;
45049;SDS011;61798;48.048;-1.928;2022-12-13T17:55:19;47.28;;;25.33;;
45049;SDS011;61798;48.048;-1.928;2022-12-13T18:06:38;42.90;;;24.25;;
45049;SDS011;61798;48.048;-1.928;2022-12-13T18:47:49;41.67;;;23.30;;
45049;SDS011;61798;48.048;-1.928;2022-12-13T18:51:36;50.33;;;26.33;;
45049;SDS011;61798;48.048;-1.928;2022-12-13T19:05:32;46.83;;;24.05;;
45049;SDS011;61798;48.048;-1.928;2022-12-13T19:13:31;43.85;;;24.30;;
45049;SDS011;61798;48.048;-1.928;2022-12-13T19:17:27;48.30;;;23.85;;
45049;SDS011;61798;48.048;-1.928;2022-12-13T19:21:12;48.17;;;23.80;;
45049;SDS011;61798;48.048;-1.928;2022-12-13T19:32:13;47.85;;;25.90;;
45049;SDS011;61798;48.048;-1.928;2022-12-13T19:36:00;45.00;;;24.55;;
45049;SDS011;61798;48.048;-1.928;2022-12-13T19:39:41;50.47;;;27.20;;
45049;SDS011;61798;48.048;-1.928;2022-12-13T19:42:54;51.53;;;27.90;;
45049;SDS011;61798;48.048;-1.928;2022-12-13T19:46:19;50.00;;;25.98;;
45049;SDS011;61798;48.048;-1.928;2022-12-13T19:49:48;51.42;;;27.02;;
45049;SDS011;61798;48.048;-1.928;2022-12-13T19:53:00;50.40;;;26.25;;
45049;SDS011;61798;48.048;-1.928;2022-12-13T20:00:28;48.65;;;25.50;;
45049;SDS011;61798;48.048;-1.928;2022-12-13T20:04:56;48.00;;;26.38;;
45049;SDS011;61798;48.048;-1.928;2022-12-13T20:07:56;50.80;;;25.65;;
45049;SDS011;61798;48.048;-1.928;2022-12-13T20:11:17;48.67;;;26.08;;
45049;SDS011;61798;48.048;-1.928;2022-12-13T20:14:24;52.13;;;27.85;;
45049;SDS011;61798;48.048;-1.928;2022-12-13T20:21:07;54.50;;;28.23;;
45049;SDS011;61798;48.048;-1.928;2022-12-13T20:23:49;56.30;;;28.02;;
45049;SDS011;61798;48.048;-1.928;2022-12-13T20:26:38;47.35;;;25.67;;
45049;SDS011;61798;48.048;-1.928;2022-12-13T20:29:39;47.80;;;25.13;;
45049;SDS011;61798;48.048;-1.928;2022-12-13T20:39:58;52.00;;;26.88;;
45049;SDS011;61798;48.048;-1.928;2022-12-13T20:42:15;50.03;;;26.55;;
45049;SDS011;61798;48.048;-1.928;2022-12-13T20:44:30;48.63;;;26.25;;
45049;SDS011;61798;48.048;-1.928;2022-12-13T20:46:53;51.85;;;26.73;;
45049;SDS011;61798;48.048;-1.928;2022-12-13T20:49:08;51.22;;;26.60;;
45049;SDS011;61798;48.048;-1.928;2022-12-13T20:51:38;47.40;;;25.15;;
45049;SDS011;61798;48.048;-1.928;2022-12-13T20:54:18;50.28;;;27.77;;
45049;SDS011;61798;48.048;-1.928;2022-12-13T20:56:58;50.22;;;26.92;;
45049;SDS011;61798;48.048;-1.928;2022-12-13T20:59:16;55.40;;;30.85;;
45049;SDS011;61798;48.048;-1.928;2022-12-13T21:02:15;62.55;;;32.42;;
45049;SDS011;61798;48.048;-1.928;2022-12-13T21:04:30;50.85;;;27.13;;
45049;SDS011;61798;48.048;-1.928;2022-12-13T21:07:01;56.00;;;28.63;;
45049;SDS011;61798;48.048;-1.928;2022-12-13T21:09:41;58.92;;;29.48;;
45049;SDS011;61798;48.048;-1.928;2022-12-13T21:12:09;51.80;;;27.85;;
45049;SDS011;61798;48.048;-1.928;2022-12-13T21:14:26;56.55;;;29.08;;
45049;SDS011;61798;48.048;-1.928;2022-12-13T21:16:53;51.50;;;28.10;;
45049;SDS011;61798;48.048;-1.928;2022-12-13T21:19:58;49.72;;;27.67;;
45049;SDS011;61798;48.048;-1.928;2022-12-13T21:22:27;54.15;;;27.80;;
45049;SDS011;61798;48.048;-1.928;2022-12-13T23:02:37;67.70;;;31.73;;
45049;SDS011;61798;48.048;-1.928;2022-12-13T23:05:13;71.78;;;32.42;;
45049;SDS011;61798;48.048;-1.928;2022-12-13T23:07:52;66.25;;;31.55;;
45049;SDS011;61798;48.048;-1.928;2022-12-13T23:10:40;76.28;;;33.20;;
45049;SDS011;61798;48.048;-1.928;2022-12-13T23:13:40;66.72;;;31.30;;
45049;SDS011;61798;48.048;-1.928;2022-12-13T23:17:07;69.20;;;32.53;;
45049;SDS011;61798;48.048;-1.928;2022-12-13T23:20:52;74.43;;;34.30;;
45049;SDS011;61798;48.048;-1.928;2022-12-13T23:24:43;71.53;;;34.08;;
45049;SDS011;61798;48.048;-1.928;2022-12-13T23:35:40;70.45;;;33.25;;
45049;SDS011;61798;48.048;-1.928;2022-12-13T23:39:53;63.00;;;31.80;;
45049;SDS011;61798;48.048;-1.928;2022-12-13T23:43:55;68.28;;;30.95;;
45049;SDS011;61798;48.048;-1.928;2022-12-13T23:47:32;60.80;;;30.20;;
